createdAt,value
2023-04-09T00:01:08.849Z,11.10
2023-04-09T00:03:36.771Z,11.00
2023-04-09T00:06:04.826Z,11.00
2023-04-09T00:08:31.748Z,11.00
2023-04-09T00:10:59.398Z,10.90
2023-04-09T00:13:38.660Z,10.90
2023-04-09T00:16:07.085Z,10.80
2023-04-09T00:18:34.297Z,10.70
2023-04-09T00:21:01.208Z,10.70
2023-04-09T00:23:28.209Z,10.70
2023-04-09T00:25:55.343Z,10.70
2023-04-09T00:28:22.302Z,10.70
2023-04-09T00:30:49.349Z,10.60
2023-04-09T00:33:16.244Z,10.60
2023-04-09T00:35:43.282Z,10.60
2023-04-09T00:38:10.432Z,10.60
2023-04-09T00:40:37.421Z,10.50
2023-04-09T00:43:04.520Z,10.50
2023-04-09T00:45:31.920Z,10.50
2023-04-09T00:47:59.092Z,10.40
2023-04-09T00:50:26.128Z,10.40
2023-04-09T00:52:53.092Z,10.30
2023-04-09T00:55:22.456Z,10.20
2023-04-09T00:57:49.879Z,10.10
2023-04-09T01:00:17.014Z,10.00
2023-04-09T01:02:45.000Z,9.90
2023-04-09T01:05:13.048Z,10.00
2023-04-09T01:08:11.506Z,9.90
2023-04-09T01:10:44.738Z,10.00
2023-04-09T01:13:39.715Z,10.10
2023-04-09T01:16:10.721Z,10.10
2023-04-09T01:18:56.598Z,10.10
2023-04-09T01:21:27.980Z,10.20
2023-04-09T01:24:13.525Z,10.20
2023-04-09T01:27:06.081Z,10.20
2023-04-09T01:29:46.334Z,10.20
2023-04-09T01:32:16.640Z,10.30
2023-04-09T01:34:47.733Z,10.30
2023-04-09T01:37:16.911Z,10.30
2023-04-09T01:39:44.410Z,10.30
2023-04-09T01:42:12.686Z,10.30
2023-04-09T01:44:41.104Z,10.30
2023-04-09T01:47:08.973Z,10.30
2023-04-09T01:49:37.673Z,10.30
2023-04-09T01:52:05.272Z,10.40
2023-04-09T01:54:33.029Z,10.40
2023-04-09T01:57:00.020Z,10.40
2023-04-09T01:59:27.028Z,10.40
2023-04-09T02:02:01.334Z,10.50
2023-04-09T02:04:35.607Z,10.40
2023-04-09T02:07:10.140Z,10.50
2023-04-09T02:09:39.342Z,10.50
2023-04-09T02:12:14.357Z,10.50
2023-04-09T02:14:42.644Z,10.50
2023-04-09T02:17:11.354Z,10.50
2023-04-09T02:19:46.606Z,10.50
2023-04-09T02:22:15.092Z,10.50
2023-04-09T02:24:42.129Z,10.50
2023-04-09T02:27:09.114Z,10.50
2023-04-09T02:29:37.366Z,10.50
2023-04-09T02:32:04.432Z,10.50
2023-04-09T02:34:31.518Z,10.50
2023-04-09T02:36:58.509Z,10.50
2023-04-09T02:39:25.498Z,10.50
2023-04-09T02:41:52.769Z,10.50
2023-04-09T02:44:19.744Z,10.50
2023-04-09T02:46:47.515Z,10.60
2023-04-09T02:49:14.589Z,10.60
2023-04-09T02:51:41.698Z,10.60
2023-04-09T02:54:08.714Z,10.60
2023-04-09T02:56:35.766Z,10.60
2023-04-09T02:59:02.797Z,10.60
2023-04-09T03:01:29.797Z,10.60
2023-04-09T03:03:56.965Z,10.60
2023-04-09T03:06:23.888Z,10.60
2023-04-09T03:08:51.581Z,10.60
2023-04-09T03:11:22.062Z,10.60
2023-04-09T03:13:49.091Z,10.60
2023-04-09T03:16:16.111Z,10.60
2023-04-09T03:18:43.798Z,10.60
2023-04-09T03:21:11.622Z,10.60
2023-04-09T03:23:47.063Z,10.60
2023-04-09T03:26:14.205Z,10.60
2023-04-09T03:28:47.961Z,10.60
2023-04-09T03:31:14.993Z,10.50
2023-04-09T03:33:43.389Z,10.50
2023-04-09T03:36:11.454Z,10.50
2023-04-09T03:38:56.837Z,10.40
2023-04-09T03:41:29.657Z,10.40
2023-04-09T03:43:59.104Z,10.30
2023-04-09T03:46:31.673Z,10.20
2023-04-09T03:49:00.651Z,10.20
2023-04-09T03:51:36.661Z,10.20
2023-04-09T03:54:04.577Z,10.10
2023-04-09T03:56:32.020Z,10.10
2023-04-09T03:58:58.949Z,10.20
2023-04-09T04:01:35.204Z,10.20
2023-04-09T04:04:02.954Z,10.20
2023-04-09T04:06:37.316Z,10.30
2023-04-09T04:09:33.365Z,10.30
2023-04-09T04:12:05.365Z,10.30
2023-04-09T04:14:55.071Z,10.30
2023-04-09T04:17:31.924Z,10.30
2023-04-09T04:20:00.404Z,10.30
2023-04-09T04:22:27.655Z,10.30
2023-04-09T04:24:58.822Z,10.20
2023-04-09T04:27:25.957Z,10.20
2023-04-09T04:29:54.170Z,10.20
2023-04-09T04:32:33.332Z,10.20
2023-04-09T04:35:05.288Z,10.10
2023-04-09T04:37:32.596Z,10.10
2023-04-09T04:40:05.423Z,10.20
2023-04-09T04:42:36.185Z,10.10
2023-04-09T04:45:10.314Z,10.20
2023-04-09T04:47:45.956Z,10.10
2023-04-09T04:50:14.074Z,10.20
2023-04-09T04:52:53.261Z,10.20
2023-04-09T04:55:22.889Z,10.20
2023-04-09T04:57:52.626Z,10.20
2023-04-09T05:00:23.310Z,10.30
2023-04-09T05:02:50.994Z,10.30
2023-04-09T05:05:24.330Z,10.40
2023-04-09T05:07:56.616Z,10.40
2023-04-09T05:10:23.989Z,10.40
2023-04-09T05:12:51.022Z,10.40
2023-04-09T05:15:26.298Z,10.40
2023-04-09T05:17:53.474Z,10.40
2023-04-09T05:20:20.543Z,10.40
2023-04-09T05:23:01.937Z,10.40
2023-04-09T05:25:33.226Z,10.40
2023-04-09T05:28:02.009Z,10.40
2023-04-09T05:30:30.718Z,10.50
2023-04-09T05:33:01.329Z,10.50
2023-04-09T05:35:28.964Z,10.50
2023-04-09T05:37:56.304Z,10.60
2023-04-09T05:40:23.352Z,10.60
2023-04-09T05:42:52.350Z,10.70
2023-04-09T05:45:32.431Z,10.80
2023-04-09T05:47:59.566Z,11.00
2023-04-09T05:50:26.738Z,11.20
2023-04-09T05:52:55.231Z,11.50
2023-04-09T05:55:27.574Z,11.80
2023-04-09T05:57:58.989Z,12.20
2023-04-09T06:00:26.728Z,12.60
2023-04-09T06:02:53.725Z,13.40
2023-04-09T06:05:20.782Z,14.40
2023-04-09T06:07:48.268Z,15.10
2023-04-09T06:10:15.519Z,15.40
2023-04-09T06:12:42.601Z,15.80
2023-04-09T06:15:09.980Z,16.50
2023-04-09T06:17:36.942Z,17.40
2023-04-09T06:20:04.259Z,18.30
2023-04-09T06:22:31.203Z,19.10
2023-04-09T06:24:58.124Z,19.70
2023-04-09T06:27:25.175Z,20.20
2023-04-09T06:29:52.117Z,20.80
2023-04-09T06:32:19.060Z,21.30
2023-04-09T06:34:46.210Z,21.70
2023-04-09T06:37:13.048Z,22.20
2023-04-09T06:39:44.708Z,22.70
2023-04-09T06:42:14.460Z,23.20
2023-04-09T06:44:51.600Z,23.60
2023-04-09T06:47:18.434Z,24.00
2023-04-09T06:49:45.488Z,24.30
2023-04-09T06:52:12.287Z,24.60
2023-04-09T06:54:39.112Z,24.80
2023-04-09T06:57:06.665Z,25.00
2023-04-09T06:59:33.931Z,25.30
2023-04-09T07:02:01.005Z,25.40
2023-04-09T07:04:28.062Z,25.40
2023-04-09T07:06:59.456Z,25.60
2023-04-09T07:09:26.285Z,25.70
2023-04-09T07:11:53.094Z,25.50
2023-04-09T07:14:19.908Z,24.80
2023-04-09T07:16:46.689Z,24.40
2023-04-09T07:19:13.523Z,24.40
2023-04-09T07:21:40.353Z,23.80
2023-04-09T07:24:07.287Z,22.70
2023-04-09T07:26:34.078Z,22.20
2023-04-09T07:29:00.975Z,22.20
2023-04-09T07:31:27.863Z,21.90
2023-04-09T07:33:54.877Z,21.40
2023-04-09T07:36:21.950Z,21.70
2023-04-09T07:38:48.762Z,21.80
2023-04-09T07:41:15.932Z,21.90
2023-04-09T07:43:43.096Z,21.40
2023-04-09T07:46:09.959Z,20.60
2023-04-09T07:48:36.761Z,19.90
2023-04-09T07:51:04.554Z,19.60
2023-04-09T07:53:31.396Z,19.50
2023-04-09T07:55:58.266Z,19.30
2023-04-09T07:58:25.082Z,19.80
2023-04-09T08:00:51.934Z,21.00
2023-04-09T08:03:19.579Z,21.60
2023-04-09T08:05:46.836Z,21.70
2023-04-09T08:08:13.730Z,21.20
2023-04-09T08:10:40.696Z,20.70
2023-04-09T08:13:08.301Z,20.60
2023-04-09T08:15:36.176Z,21.50
2023-04-09T08:18:04.344Z,22.00
2023-04-09T08:20:33.053Z,21.70
2023-04-09T08:22:59.868Z,21.00
2023-04-09T08:25:29.676Z,20.30
2023-04-09T08:27:56.970Z,19.60
2023-04-09T08:30:23.777Z,19.00
2023-04-09T08:32:50.595Z,18.50
2023-04-09T08:35:17.525Z,18.20
2023-04-09T08:37:44.384Z,17.80
2023-04-09T08:40:11.829Z,17.60
2023-04-09T08:42:44.226Z,17.50
2023-04-09T08:45:11.739Z,17.30
2023-04-09T08:47:40.043Z,17.20
2023-04-09T08:50:08.376Z,17.30
2023-04-09T08:52:35.323Z,17.20
2023-04-09T08:55:02.291Z,17.20
2023-04-09T08:57:29.278Z,17.20
2023-04-09T08:59:56.463Z,17.20
2023-04-09T09:02:24.673Z,17.10
2023-04-09T09:04:53.515Z,17.00
2023-04-09T09:07:20.428Z,17.10
2023-04-09T09:09:54.021Z,17.20
2023-04-09T09:12:32.746Z,17.30
2023-04-09T09:14:59.860Z,17.50
2023-04-09T09:17:26.776Z,18.10
2023-04-09T09:19:53.815Z,19.00
2023-04-09T09:22:20.634Z,19.00
2023-04-09T09:24:50.302Z,18.60
2023-04-09T09:27:33.342Z,18.30
2023-04-09T09:30:01.381Z,18.00
2023-04-09T09:32:28.262Z,17.80
2023-04-09T09:34:59.412Z,17.70
2023-04-09T09:37:27.153Z,17.60
2023-04-09T09:39:54.373Z,17.40
2023-04-09T09:42:21.265Z,17.10
2023-04-09T09:44:48.426Z,17.00
2023-04-09T09:47:15.790Z,16.90
2023-04-09T09:49:42.614Z,16.80
2023-04-09T09:52:10.427Z,16.70
2023-04-09T09:54:42.240Z,16.50
2023-04-09T09:57:15.509Z,16.30
2023-04-09T09:59:47.686Z,16.10
2023-04-09T10:02:23.070Z,16.10
2023-04-09T10:04:52.979Z,16.30
2023-04-09T10:07:21.292Z,16.50
2023-04-09T10:09:49.772Z,16.50
2023-04-09T10:12:16.850Z,16.30
2023-04-09T10:14:43.769Z,16.20
2023-04-09T10:17:10.633Z,16.20
2023-04-09T10:19:47.250Z,16.20
2023-04-09T10:22:18.047Z,16.20
2023-04-09T10:24:45.059Z,16.10
2023-04-09T10:27:16.972Z,16.10
2023-04-09T10:29:47.705Z,16.30
2023-04-09T10:32:35.102Z,16.50
2023-04-09T10:35:04.158Z,16.80
2023-04-09T10:37:31.820Z,16.90
2023-04-09T10:39:58.843Z,17.00
2023-04-09T10:42:41.031Z,17.00
2023-04-09T10:45:12.146Z,16.90
2023-04-09T10:47:40.114Z,17.10
2023-04-09T10:50:17.087Z,18.60
2023-04-09T10:52:44.482Z,19.90
2023-04-09T10:55:40.907Z,19.80
2023-04-09T10:58:11.324Z,19.70
2023-04-09T11:00:43.832Z,20.40
2023-04-09T11:03:27.643Z,21.40
2023-04-09T11:06:09.464Z,21.50
2023-04-09T11:08:38.497Z,21.00
2023-04-09T11:11:06.010Z,20.00
2023-04-09T11:13:34.261Z,19.50
2023-04-09T11:16:03.430Z,19.00
2023-04-09T11:18:30.761Z,18.90
2023-04-09T11:20:59.922Z,18.70
2023-04-09T11:23:27.077Z,18.50
2023-04-09T11:25:54.751Z,18.20
2023-04-09T11:28:22.019Z,17.80
2023-04-09T11:30:50.876Z,17.50
2023-04-09T11:33:19.797Z,17.20
2023-04-09T11:35:47.491Z,17.00
2023-04-09T11:38:14.415Z,16.80
2023-04-09T11:40:48.094Z,16.60
2023-04-09T11:43:20.904Z,16.30
2023-04-09T11:45:48.710Z,16.20
2023-04-09T11:48:18.391Z,16.40
2023-04-09T11:50:47.385Z,16.70
2023-04-09T11:53:21.105Z,17.00
2023-04-09T11:55:50.827Z,17.40
2023-04-09T11:58:18.423Z,17.40
2023-04-09T12:00:45.738Z,17.70
2023-04-09T12:03:12.917Z,18.50
2023-04-09T12:05:47.869Z,19.30
2023-04-09T12:08:22.463Z,19.50
2023-04-09T12:10:50.136Z,19.40
2023-04-09T12:13:18.284Z,19.70
2023-04-09T12:15:45.535Z,20.40
2023-04-09T12:18:14.270Z,20.90
2023-04-09T12:20:45.044Z,20.70
2023-04-09T12:23:12.500Z,21.50
2023-04-09T12:25:40.720Z,23.10
2023-04-09T12:28:08.697Z,24.40
2023-04-09T12:30:36.865Z,25.00
2023-04-09T12:33:04.350Z,24.90
2023-04-09T12:35:31.887Z,25.10
2023-04-09T12:37:59.510Z,25.40
2023-04-09T12:40:26.555Z,25.80
2023-04-09T12:42:53.990Z,26.20
2023-04-09T12:45:21.263Z,26.40
2023-04-09T12:47:48.295Z,26.40
2023-04-09T12:50:16.300Z,26.10
2023-04-09T12:52:43.756Z,26.20
2023-04-09T12:55:11.190Z,26.70
2023-04-09T12:57:39.615Z,26.30
2023-04-09T13:00:07.796Z,25.40
2023-04-09T13:02:35.141Z,25.40
2023-04-09T13:05:02.426Z,24.80
2023-04-09T13:07:29.444Z,24.30
2023-04-09T13:09:56.637Z,24.70
2023-04-09T13:12:23.634Z,25.10
2023-04-09T13:14:50.962Z,24.70
2023-04-09T13:17:17.813Z,23.80
2023-04-09T13:19:44.787Z,22.80
2023-04-09T13:22:11.666Z,21.90
2023-04-09T13:24:38.991Z,21.00
2023-04-09T13:27:06.654Z,20.50
2023-04-09T13:29:33.555Z,20.00
2023-04-09T13:32:05.750Z,19.60
2023-04-09T13:34:33.164Z,19.40
2023-04-09T13:36:59.960Z,19.30
2023-04-09T13:39:26.844Z,19.20
2023-04-09T13:41:55.306Z,19.10
2023-04-09T13:44:22.524Z,19.10
2023-04-09T13:46:49.407Z,19.10
2023-04-09T13:49:16.650Z,19.30
2023-04-09T13:51:43.641Z,19.60
2023-04-09T13:54:11.311Z,19.60
2023-04-09T13:56:38.726Z,19.50
2023-04-09T13:59:06.503Z,19.50
2023-04-09T14:01:33.943Z,19.60
2023-04-09T14:04:00.939Z,19.60
2023-04-09T14:06:28.041Z,19.40
2023-04-09T14:08:55.295Z,19.40
2023-04-09T14:11:22.340Z,19.40
2023-04-09T14:13:49.444Z,19.20
2023-04-09T14:16:16.534Z,18.80
2023-04-09T14:18:43.370Z,18.30
2023-04-09T14:21:10.525Z,18.00
2023-04-09T14:23:38.788Z,17.70
2023-04-09T14:26:06.081Z,17.50
2023-04-09T14:28:33.213Z,17.30
2023-04-09T14:31:00.177Z,17.20
2023-04-09T14:33:27.109Z,17.00
2023-04-09T14:35:53.898Z,16.80
2023-04-09T14:38:20.793Z,16.70
2023-04-09T14:40:47.661Z,16.40
2023-04-09T14:43:14.571Z,16.20
2023-04-09T14:45:41.446Z,16.10
2023-04-09T14:48:08.739Z,15.90
2023-04-09T14:50:36.730Z,15.70
2023-04-09T14:53:03.909Z,15.50
2023-04-09T14:55:30.943Z,15.40
2023-04-09T14:57:59.031Z,15.20
2023-04-09T15:00:26.045Z,15.20
2023-04-09T15:02:53.129Z,15.10
2023-04-09T15:05:20.182Z,15.10
2023-04-09T15:07:47.298Z,15.00
2023-04-09T15:10:14.231Z,15.00
2023-04-09T15:12:41.129Z,14.90
2023-04-09T15:15:08.839Z,14.90
2023-04-09T15:17:35.899Z,14.90
2023-04-09T15:20:03.482Z,14.90
2023-04-09T15:22:30.289Z,14.90
2023-04-09T15:24:57.122Z,15.00
2023-04-09T15:27:24.053Z,15.10
2023-04-09T15:29:50.992Z,15.10
2023-04-09T15:32:17.980Z,15.10
2023-04-09T15:34:44.851Z,15.10
2023-04-09T15:37:11.672Z,15.00
2023-04-09T15:39:38.608Z,14.90
2023-04-09T15:42:06.324Z,14.90
2023-04-09T15:44:36.206Z,14.90
2023-04-09T15:47:03.105Z,14.80
2023-04-09T15:49:29.985Z,14.80
2023-04-09T15:51:56.818Z,14.70
2023-04-09T15:54:23.640Z,14.70
2023-04-09T15:56:50.471Z,14.80
2023-04-09T15:59:18.944Z,14.70
2023-04-09T16:01:45.977Z,14.60
2023-04-09T16:04:12.982Z,14.50
2023-04-09T16:06:40.131Z,14.40
2023-04-09T16:09:07.341Z,14.20
2023-04-09T16:11:36.330Z,14.10
2023-04-09T16:14:03.855Z,13.90
2023-04-09T16:16:30.818Z,13.90
2023-04-09T16:18:57.904Z,13.90
2023-04-09T16:21:24.839Z,13.90
2023-04-09T16:23:51.843Z,13.90
2023-04-09T16:26:19.017Z,13.80
2023-04-09T16:28:46.125Z,13.80
2023-04-09T16:31:13.264Z,13.70
2023-04-09T16:33:40.255Z,13.70
2023-04-09T16:36:07.658Z,13.60
2023-04-09T16:38:34.741Z,13.60
2023-04-09T16:41:01.701Z,13.60
2023-04-09T16:43:29.803Z,13.60
2023-04-09T16:45:57.170Z,13.50
2023-04-09T16:48:24.231Z,13.50
2023-04-09T16:50:51.221Z,13.50
2023-04-09T16:53:18.239Z,13.50
2023-04-09T16:55:45.581Z,13.40
2023-04-09T16:58:12.656Z,13.50
2023-04-09T17:00:40.144Z,13.40
2023-04-09T17:03:07.410Z,13.40
2023-04-09T17:05:34.826Z,13.40
2023-04-09T17:08:01.854Z,13.40
2023-04-09T17:10:28.930Z,13.40
2023-04-09T17:12:56.433Z,13.30
2023-04-09T17:15:25.105Z,13.30
2023-04-09T17:17:53.669Z,13.30
2023-04-09T17:20:22.726Z,13.30
2023-04-09T17:22:49.815Z,13.20
2023-04-09T17:25:17.103Z,13.20
2023-04-09T17:27:45.480Z,13.20
2023-04-09T17:30:12.647Z,13.20
2023-04-09T17:32:40.486Z,13.10
2023-04-09T17:35:08.238Z,13.10
2023-04-09T17:37:38.594Z,13.00
2023-04-09T17:40:06.605Z,13.10
2023-04-09T17:42:33.659Z,13.00
2023-04-09T17:45:00.940Z,13.00
2023-04-09T17:47:27.988Z,13.00
2023-04-09T17:49:54.973Z,13.00
2023-04-09T17:52:22.498Z,13.00
2023-04-09T17:54:50.904Z,13.00
2023-04-09T17:57:18.491Z,13.00
2023-04-09T17:59:45.512Z,13.00
2023-04-09T18:02:12.797Z,13.00
2023-04-09T18:04:40.303Z,13.00
2023-04-09T18:07:07.869Z,13.00
2023-04-09T18:09:34.846Z,12.90
2023-04-09T18:12:02.736Z,12.90
2023-04-09T18:14:32.397Z,12.80
2023-04-09T18:16:59.749Z,12.70
2023-04-09T18:19:26.685Z,12.70
2023-04-09T18:21:53.630Z,12.70
2023-04-09T18:24:20.579Z,12.60
2023-04-09T18:26:47.578Z,12.60
2023-04-09T18:29:14.661Z,12.60
2023-04-09T18:31:41.678Z,12.60
2023-04-09T18:34:08.707Z,12.60
2023-04-09T18:36:35.772Z,12.50
2023-04-09T18:39:04.948Z,12.50
2023-04-09T18:41:32.334Z,12.50
2023-04-09T18:43:59.459Z,12.40
2023-04-09T18:46:26.957Z,12.40
2023-04-09T18:48:54.072Z,12.40
2023-04-09T18:51:21.525Z,12.30
2023-04-09T18:53:52.923Z,12.20
2023-04-09T18:56:21.134Z,12.10
2023-04-09T18:58:48.650Z,12.10
2023-04-09T19:01:17.481Z,12.10
2023-04-09T19:03:46.230Z,12.10
2023-04-09T19:06:17.650Z,12.10
2023-04-09T19:08:50.118Z,12.00
2023-04-09T19:11:17.225Z,12.00
2023-04-09T19:13:44.148Z,11.90
2023-04-09T19:16:11.426Z,11.90
2023-04-09T19:18:38.690Z,11.80
2023-04-09T19:21:07.509Z,11.80
2023-04-09T19:23:34.885Z,11.70
2023-04-09T19:26:02.800Z,11.70
2023-04-09T19:28:29.801Z,11.70
2023-04-09T19:30:59.611Z,11.70
2023-04-09T19:33:27.844Z,11.70
2023-04-09T19:35:55.890Z,11.70
2023-04-09T19:38:23.188Z,11.60
2023-04-09T19:40:50.171Z,11.60
2023-04-09T19:43:17.187Z,11.60
2023-04-09T19:45:44.458Z,11.60
2023-04-09T19:48:12.540Z,11.60
2023-04-09T19:50:46.500Z,11.60
2023-04-09T19:53:13.748Z,11.60
2023-04-09T19:55:41.265Z,11.60
2023-04-09T19:58:08.247Z,11.60
2023-04-09T20:00:35.703Z,11.70
2023-04-09T20:03:03.231Z,11.70
2023-04-09T20:05:30.411Z,11.70
2023-04-09T20:07:57.499Z,11.70
2023-04-09T20:10:24.597Z,11.70
2023-04-09T20:12:52.100Z,11.70
2023-04-09T20:15:22.268Z,11.80
2023-04-09T20:17:50.586Z,11.70
2023-04-09T20:20:20.550Z,11.70
2023-04-09T20:22:55.554Z,11.70
2023-04-09T20:25:23.706Z,11.70
2023-04-09T20:27:53.310Z,11.70
2023-04-09T20:30:20.746Z,11.70
2023-04-09T20:32:49.087Z,11.70
2023-04-09T20:35:16.939Z,11.70
2023-04-09T20:37:44.187Z,11.70
2023-04-09T20:40:14.238Z,11.70
2023-04-09T20:42:41.625Z,11.70
2023-04-09T20:45:09.683Z,11.70
2023-04-09T20:47:36.875Z,11.60
2023-04-09T20:50:05.145Z,11.60
2023-04-09T20:52:32.456Z,11.60
2023-04-09T20:54:59.822Z,11.60
2023-04-09T20:57:27.321Z,11.60
2023-04-09T20:59:54.451Z,11.60
2023-04-09T21:02:21.978Z,11.60
2023-04-09T21:04:49.064Z,11.60
2023-04-09T21:07:16.225Z,11.50
2023-04-09T21:09:43.173Z,11.50
2023-04-09T21:12:10.352Z,11.50
2023-04-09T21:14:37.379Z,11.40
2023-04-09T21:17:04.395Z,11.30
2023-04-09T21:19:31.549Z,11.30
2023-04-09T21:21:58.612Z,11.30
2023-04-09T21:24:26.903Z,11.30
2023-04-09T21:26:53.867Z,11.30
2023-04-09T21:29:21.790Z,11.30
2023-04-09T21:31:49.295Z,11.30
2023-04-09T21:34:16.397Z,11.20
2023-04-09T21:36:45.239Z,11.20
2023-04-09T21:39:12.678Z,11.20
2023-04-09T21:41:39.702Z,11.10
2023-04-09T21:44:09.305Z,11.00
2023-04-09T21:46:37.370Z,11.00
2023-04-09T21:49:04.735Z,11.00
2023-04-09T21:51:32.313Z,10.90
2023-04-09T21:54:06.799Z,10.90
2023-04-09T21:56:34.472Z,10.90
2023-04-09T21:59:01.898Z,10.80
2023-04-09T22:01:31.257Z,10.80
2023-04-09T22:03:59.854Z,10.70
2023-04-09T22:06:28.767Z,10.70
2023-04-09T22:08:58.052Z,10.70
2023-04-09T22:11:29.765Z,10.60
2023-04-09T22:13:57.499Z,10.50
2023-04-09T22:16:25.543Z,10.50
2023-04-09T22:18:54.076Z,10.40
2023-04-09T22:21:21.609Z,10.40
2023-04-09T22:23:48.656Z,10.30
2023-04-09T22:26:15.792Z,10.20
2023-04-09T22:28:42.757Z,10.10
2023-04-09T22:31:09.747Z,10.00
2023-04-09T22:33:36.772Z,9.90
2023-04-09T22:36:03.899Z,9.90
2023-04-09T22:38:31.207Z,9.80
2023-04-09T22:40:58.139Z,9.70
2023-04-09T22:43:25.061Z,9.70
2023-04-09T22:45:56.112Z,9.60
2023-04-09T22:48:23.439Z,9.70
2023-04-09T22:50:51.175Z,9.70
2023-04-09T22:53:21.701Z,9.70
2023-04-09T22:55:52.521Z,9.80
2023-04-09T22:58:19.465Z,9.80
2023-04-09T23:00:47.548Z,9.80
2023-04-09T23:03:14.869Z,9.80
2023-04-09T23:05:42.251Z,9.80
2023-04-09T23:08:12.373Z,9.80
2023-04-09T23:10:39.291Z,9.80
2023-04-09T23:13:06.347Z,9.80
2023-04-09T23:15:33.254Z,9.90
2023-04-09T23:18:00.368Z,9.80
2023-04-09T23:20:27.318Z,9.80
2023-04-09T23:22:54.293Z,9.80
2023-04-09T23:25:22.518Z,9.80
2023-04-09T23:27:49.450Z,9.70
2023-04-09T23:30:17.133Z,9.70
2023-04-09T23:32:45.383Z,9.70
2023-04-09T23:35:12.768Z,9.60
2023-04-09T23:37:42.456Z,9.60
2023-04-09T23:40:10.602Z,9.50
2023-04-09T23:42:37.562Z,9.50
2023-04-09T23:45:06.248Z,9.40
2023-04-09T23:47:36.556Z,9.40
2023-04-09T23:50:07.526Z,9.40
2023-04-09T23:52:36.039Z,9.40
2023-04-09T23:55:04.460Z,9.40
2023-04-09T23:57:31.461Z,9.30
2023-04-09T23:59:58.846Z,9.30
